sensor_id;sensor_type;location;lat;lon;timestamp;temperature;humidity
78054;DHT22;67726;45.636;11.752;2023-05-10T00:00:44;18.50;40.90
78054;DHT22;67726;45.636;11.752;2023-05-10T00:03:09;18.60;41.10
78054;DHT22;67726;45.636;11.752;2023-05-10T00:05:35;18.50;41.10
78054;DHT22;67726;45.636;11.752;2023-05-10T00:08:00;18.60;41.40
78054;DHT22;67726;45.636;11.752;2023-05-10T00:10:26;18.50;41.60
78054;DHT22;67726;45.636;11.752;2023-05-10T00:12:52;18.50;41.50
78054;DHT22;67726;45.636;11.752;2023-05-10T00:15:17;18.40;41.70
78054;DHT22;67726;45.636;11.752;2023-05-10T00:17:43;18.40;41.30
78054;DHT22;67726;45.636;11.752;2023-05-10T00:20:09;18.40;41.40
78054;DHT22;67726;45.636;11.752;2023-05-10T00:22:35;18.40;41.20
78054;DHT22;67726;45.636;11.752;2023-05-10T00:25:01;18.30;41.20
78054;DHT22;67726;45.636;11.752;2023-05-10T00:27:26;18.40;41.70
78054;DHT22;67726;45.636;11.752;2023-05-10T00:29:52;18.40;42.40
78054;DHT22;67726;45.636;11.752;2023-05-10T00:32:18;18.30;42.40
78054;DHT22;67726;45.636;11.752;2023-05-10T00:34:43;18.10;43.90
78054;DHT22;67726;45.636;11.752;2023-05-10T00:37:09;18.20;43.20
78054;DHT22;67726;45.636;11.752;2023-05-10T00:39:34;18.20;43.40
78054;DHT22;67726;45.636;11.752;2023-05-10T00:42:00;18.00;44.70
78054;DHT22;67726;45.636;11.752;2023-05-10T00:44:26;18.10;46.00
78054;DHT22;67726;45.636;11.752;2023-05-10T00:46:53;18.00;45.40
78054;DHT22;67726;45.636;11.752;2023-05-10T00:49:19;18.00;45.60
78054;DHT22;67726;45.636;11.752;2023-05-10T00:51:45;17.90;45.90
78054;DHT22;67726;45.636;11.752;2023-05-10T00:54:12;17.90;46.60
78054;DHT22;67726;45.636;11.752;2023-05-10T00:56:39;17.80;47.90
78054;DHT22;67726;45.636;11.752;2023-05-10T00:59:05;17.90;47.70
78054;DHT22;67726;45.636;11.752;2023-05-10T01:01:31;17.70;48.30
78054;DHT22;67726;45.636;11.752;2023-05-10T01:03:58;17.60;48.60
78054;DHT22;67726;45.636;11.752;2023-05-10T01:06:24;17.60;49.10
78054;DHT22;67726;45.636;11.752;2023-05-10T01:08:49;17.50;49.10
78054;DHT22;67726;45.636;11.752;2023-05-10T01:11:15;17.40;50.60
78054;DHT22;67726;45.636;11.752;2023-05-10T01:13:42;17.40;51.10
78054;DHT22;67726;45.636;11.752;2023-05-10T01:16:08;17.30;51.90
78054;DHT22;67726;45.636;11.752;2023-05-10T01:18:38;17.30;51.60
78054;DHT22;67726;45.636;11.752;2023-05-10T01:35:03;17.20;54.90
78054;DHT22;67726;45.636;11.752;2023-05-10T01:37:42;17.10;54.60
78054;DHT22;67726;45.636;11.752;2023-05-10T01:42:51;16.90;55.50
78054;DHT22;67726;45.636;11.752;2023-05-10T01:45:27;16.90;54.90
78054;DHT22;67726;45.636;11.752;2023-05-10T01:48:19;16.80;56.10
78054;DHT22;67726;45.636;11.752;2023-05-10T01:50:45;16.90;55.00
78054;DHT22;67726;45.636;11.752;2023-05-10T01:53:13;16.80;55.40
78054;DHT22;67726;45.636;11.752;2023-05-10T01:55:50;16.80;54.60
78054;DHT22;67726;45.636;11.752;2023-05-10T01:58:21;16.80;54.20
78054;DHT22;67726;45.636;11.752;2023-05-10T02:00:49;16.80;53.80
78054;DHT22;67726;45.636;11.752;2023-05-10T02:03:16;16.80;53.90
78054;DHT22;67726;45.636;11.752;2023-05-10T02:05:44;16.80;54.20
78054;DHT22;67726;45.636;11.752;2023-05-10T02:08:12;16.90;54.10
78054;DHT22;67726;45.636;11.752;2023-05-10T02:10:39;16.90;54.20
78054;DHT22;67726;45.636;11.752;2023-05-10T02:13:07;17.00;54.10
78054;DHT22;67726;45.636;11.752;2023-05-10T02:15:33;16.90;53.80
78054;DHT22;67726;45.636;11.752;2023-05-10T02:18:00;17.00;54.00
78054;DHT22;67726;45.636;11.752;2023-05-10T02:20:27;17.00;54.40
78054;DHT22;67726;45.636;11.752;2023-05-10T02:22:55;17.00;54.20
78054;DHT22;67726;45.636;11.752;2023-05-10T02:25:22;17.00;54.70
78054;DHT22;67726;45.636;11.752;2023-05-10T02:27:48;17.00;54.70
78054;DHT22;67726;45.636;11.752;2023-05-10T02:30:16;16.80;54.30
78054;DHT22;67726;45.636;11.752;2023-05-10T02:32:44;16.90;54.60
78054;DHT22;67726;45.636;11.752;2023-05-10T02:35:11;16.90;54.70
78054;DHT22;67726;45.636;11.752;2023-05-10T02:37:38;16.90;54.80
78054;DHT22;67726;45.636;11.752;2023-05-10T02:40:06;16.90;54.10
78054;DHT22;67726;45.636;11.752;2023-05-10T02:42:34;16.80;54.30
78054;DHT22;67726;45.636;11.752;2023-05-10T02:45:02;16.90;54.90
78054;DHT22;67726;45.636;11.752;2023-05-10T02:47:29;16.80;53.50
78054;DHT22;67726;45.636;11.752;2023-05-10T02:49:55;16.90;53.80
78054;DHT22;67726;45.636;11.752;2023-05-10T02:52:27;16.80;52.20
78054;DHT22;67726;45.636;11.752;2023-05-10T02:54:56;16.70;52.30
78054;DHT22;67726;45.636;11.752;2023-05-10T02:57:27;16.70;51.30
78054;DHT22;67726;45.636;11.752;2023-05-10T02:59:54;16.80;50.70
78054;DHT22;67726;45.636;11.752;2023-05-10T03:02:20;16.70;49.80
78054;DHT22;67726;45.636;11.752;2023-05-10T03:04:46;16.70;49.70
78054;DHT22;67726;45.636;11.752;2023-05-10T03:07:12;16.60;50.80
78054;DHT22;67726;45.636;11.752;2023-05-10T03:09:38;16.60;51.40
78054;DHT22;67726;45.636;11.752;2023-05-10T03:12:07;16.50;51.70
78054;DHT22;67726;45.636;11.752;2023-05-10T03:17:14;16.40;52.60
78054;DHT22;67726;45.636;11.752;2023-05-10T03:19:58;16.30;52.90
78054;DHT22;67726;45.636;11.752;2023-05-10T03:22:34;16.30;52.40
78054;DHT22;67726;45.636;11.752;2023-05-10T03:25:04;16.30;52.40
78054;DHT22;67726;45.636;11.752;2023-05-10T03:27:31;16.40;53.10
78054;DHT22;67726;45.636;11.752;2023-05-10T03:29:57;16.30;53.00
78054;DHT22;67726;45.636;11.752;2023-05-10T03:32:24;16.40;53.00
78054;DHT22;67726;45.636;11.752;2023-05-10T03:34:49;16.50;52.80
78054;DHT22;67726;45.636;11.752;2023-05-10T03:37:15;16.40;53.20
78054;DHT22;67726;45.636;11.752;2023-05-10T03:39:41;16.40;53.80
78054;DHT22;67726;45.636;11.752;2023-05-10T03:42:06;16.40;54.40
78054;DHT22;67726;45.636;11.752;2023-05-10T03:44:32;16.30;53.90
78054;DHT22;67726;45.636;11.752;2023-05-10T03:46:58;16.20;54.40
78054;DHT22;67726;45.636;11.752;2023-05-10T03:49:24;16.30;55.20
78054;DHT22;67726;45.636;11.752;2023-05-10T03:51:50;16.20;54.70
78054;DHT22;67726;45.636;11.752;2023-05-10T03:54:15;16.10;54.70
78054;DHT22;67726;45.636;11.752;2023-05-10T03:56:41;16.20;54.30
78054;DHT22;67726;45.636;11.752;2023-05-10T03:59:07;16.20;54.60
78054;DHT22;67726;45.636;11.752;2023-05-10T04:01:34;16.00;55.00
78054;DHT22;67726;45.636;11.752;2023-05-10T04:04:00;16.00;55.90
78054;DHT22;67726;45.636;11.752;2023-05-10T04:06:26;16.00;57.00
78054;DHT22;67726;45.636;11.752;2023-05-10T04:08:51;16.00;55.80
78054;DHT22;67726;45.636;11.752;2023-05-10T04:11:17;15.90;56.40
78054;DHT22;67726;45.636;11.752;2023-05-10T04:13:43;15.90;56.70
78054;DHT22;67726;45.636;11.752;2023-05-10T04:16:08;15.80;56.80
78054;DHT22;67726;45.636;11.752;2023-05-10T04:18:34;15.80;57.00
78054;DHT22;67726;45.636;11.752;2023-05-10T04:21:00;15.80;57.20
78054;DHT22;67726;45.636;11.752;2023-05-10T04:23:27;15.80;57.10
78054;DHT22;67726;45.636;11.752;2023-05-10T04:25:56;15.80;57.00
78054;DHT22;67726;45.636;11.752;2023-05-10T04:28:23;15.90;56.90
78054;DHT22;67726;45.636;11.752;2023-05-10T04:30:49;15.80;57.30
78054;DHT22;67726;45.636;11.752;2023-05-10T04:33:15;15.80;58.10
78054;DHT22;67726;45.636;11.752;2023-05-10T04:35:41;15.80;58.70
78054;DHT22;67726;45.636;11.752;2023-05-10T04:38:06;15.70;58.30
78054;DHT22;67726;45.636;11.752;2023-05-10T04:40:32;15.80;59.90
78054;DHT22;67726;45.636;11.752;2023-05-10T04:42:58;15.70;59.70
78054;DHT22;67726;45.636;11.752;2023-05-10T04:45:23;15.60;59.00
78054;DHT22;67726;45.636;11.752;2023-05-10T04:47:49;15.50;59.90
78054;DHT22;67726;45.636;11.752;2023-05-10T04:50:14;15.60;59.70
78054;DHT22;67726;45.636;11.752;2023-05-10T04:52:40;15.50;61.20
78054;DHT22;67726;45.636;11.752;2023-05-10T04:55:06;15.50;60.80
78054;DHT22;67726;45.636;11.752;2023-05-10T04:57:34;15.50;60.50
78054;DHT22;67726;45.636;11.752;2023-05-10T05:00:00;15.50;60.60
78054;DHT22;67726;45.636;11.752;2023-05-10T05:02:26;15.40;62.30
78054;DHT22;67726;45.636;11.752;2023-05-10T05:04:51;15.40;61.70
78054;DHT22;67726;45.636;11.752;2023-05-10T05:07:17;15.50;60.70
78054;DHT22;67726;45.636;11.752;2023-05-10T05:09:42;15.30;62.70
78054;DHT22;67726;45.636;11.752;2023-05-10T05:12:08;15.40;62.60
78054;DHT22;67726;45.636;11.752;2023-05-10T05:14:39;15.30;63.70
78054;DHT22;67726;45.636;11.752;2023-05-10T05:17:05;15.30;63.50
78054;DHT22;67726;45.636;11.752;2023-05-10T05:19:31;15.20;64.60
78054;DHT22;67726;45.636;11.752;2023-05-10T05:21:56;15.20;65.10
78054;DHT22;67726;45.636;11.752;2023-05-10T05:24:22;15.10;66.50
78054;DHT22;67726;45.636;11.752;2023-05-10T05:26:48;15.10;66.80
78054;DHT22;67726;45.636;11.752;2023-05-10T05:29:14;15.00;66.80
78054;DHT22;67726;45.636;11.752;2023-05-10T05:31:39;15.00;66.70
78054;DHT22;67726;45.636;11.752;2023-05-10T05:34:05;15.00;67.50
78054;DHT22;67726;45.636;11.752;2023-05-10T05:36:31;15.10;67.10
78054;DHT22;67726;45.636;11.752;2023-05-10T05:38:57;15.00;67.80
78054;DHT22;67726;45.636;11.752;2023-05-10T05:41:22;15.00;68.30
78054;DHT22;67726;45.636;11.752;2023-05-10T05:43:49;14.90;69.20
78054;DHT22;67726;45.636;11.752;2023-05-10T05:46:15;14.90;69.20
78054;DHT22;67726;45.636;11.752;2023-05-10T05:48:41;14.90;70.10
78054;DHT22;67726;45.636;11.752;2023-05-10T05:51:06;14.90;69.40
78054;DHT22;67726;45.636;11.752;2023-05-10T05:53:32;14.90;70.70
78054;DHT22;67726;45.636;11.752;2023-05-10T05:55:58;14.90;71.50
78054;DHT22;67726;45.636;11.752;2023-05-10T05:58:27;14.90;72.20
78054;DHT22;67726;45.636;11.752;2023-05-10T06:00:53;14.90;72.30
78054;DHT22;67726;45.636;11.752;2023-05-10T06:03:19;14.90;71.10
78054;DHT22;67726;45.636;11.752;2023-05-10T06:05:45;14.90;71.40
78054;DHT22;67726;45.636;11.752;2023-05-10T06:08:11;14.90;74.10
78054;DHT22;67726;45.636;11.752;2023-05-10T06:10:36;14.80;72.60
78054;DHT22;67726;45.636;11.752;2023-05-10T06:13:02;14.90;71.90
78054;DHT22;67726;45.636;11.752;2023-05-10T06:15:28;14.80;73.00
78054;DHT22;67726;45.636;11.752;2023-05-10T06:17:53;14.90;72.30
78054;DHT22;67726;45.636;11.752;2023-05-10T06:20:19;14.90;73.50
78054;DHT22;67726;45.636;11.752;2023-05-10T06:22:45;14.80;74.10
78054;DHT22;67726;45.636;11.752;2023-05-10T06:25:10;14.90;74.20
78054;DHT22;67726;45.636;11.752;2023-05-10T06:27:36;14.80;72.90
78054;DHT22;67726;45.636;11.752;2023-05-10T06:30:03;14.80;74.20
78054;DHT22;67726;45.636;11.752;2023-05-10T06:32:29;14.80;75.10
78054;DHT22;67726;45.636;11.752;2023-05-10T06:34:54;14.70;76.00
78054;DHT22;67726;45.636;11.752;2023-05-10T06:37:20;14.70;76.90
78054;DHT22;67726;45.636;11.752;2023-05-10T06:39:46;14.70;77.50
78054;DHT22;67726;45.636;11.752;2023-05-10T06:42:11;14.70;75.20
78054;DHT22;67726;45.636;11.752;2023-05-10T06:44:37;14.80;75.40
78054;DHT22;67726;45.636;11.752;2023-05-10T06:47:02;14.70;77.40
78054;DHT22;67726;45.636;11.752;2023-05-10T06:49:28;14.70;76.60
78054;DHT22;67726;45.636;11.752;2023-05-10T06:51:55;14.80;77.30
78054;DHT22;67726;45.636;11.752;2023-05-10T06:54:21;14.70;78.30
78054;DHT22;67726;45.636;11.752;2023-05-10T06:56:47;14.70;78.50
78054;DHT22;67726;45.636;11.752;2023-05-10T06:59:12;14.70;77.80
78054;DHT22;67726;45.636;11.752;2023-05-10T07:01:39;14.70;77.60
78054;DHT22;67726;45.636;11.752;2023-05-10T07:04:04;14.70;78.50
78054;DHT22;67726;45.636;11.752;2023-05-10T07:06:30;14.80;77.40
78054;DHT22;67726;45.636;11.752;2023-05-10T07:08:56;14.80;76.30
78054;DHT22;67726;45.636;11.752;2023-05-10T07:11:22;14.70;76.40
78054;DHT22;67726;45.636;11.752;2023-05-10T07:13:48;14.70;77.70
78054;DHT22;67726;45.636;11.752;2023-05-10T07:16:13;14.70;79.20
78054;DHT22;67726;45.636;11.752;2023-05-10T07:18:39;14.70;78.30
78054;DHT22;67726;45.636;11.752;2023-05-10T07:21:04;14.70;78.50
78054;DHT22;67726;45.636;11.752;2023-05-10T07:23:30;14.80;79.00
78054;DHT22;67726;45.636;11.752;2023-05-10T07:25:56;14.70;77.80
78054;DHT22;67726;45.636;11.752;2023-05-10T07:28:23;14.80;78.70
78054;DHT22;67726;45.636;11.752;2023-05-10T07:30:49;14.80;77.60
78054;DHT22;67726;45.636;11.752;2023-05-10T07:33:15;14.70;77.90
78054;DHT22;67726;45.636;11.752;2023-05-10T07:35:42;14.70;78.20
78054;DHT22;67726;45.636;11.752;2023-05-10T07:38:07;14.70;78.50
78054;DHT22;67726;45.636;11.752;2023-05-10T07:40:33;14.70;78.70
78054;DHT22;67726;45.636;11.752;2023-05-10T07:42:59;14.80;79.50
78054;DHT22;67726;45.636;11.752;2023-05-10T07:45:28;14.70;79.20
78054;DHT22;67726;45.636;11.752;2023-05-10T07:47:53;14.80;78.90
78054;DHT22;67726;45.636;11.752;2023-05-10T07:50:19;14.70;79.20
78054;DHT22;67726;45.636;11.752;2023-05-10T07:52:46;14.70;78.50
78054;DHT22;67726;45.636;11.752;2023-05-10T07:55:12;14.60;78.60
78054;DHT22;67726;45.636;11.752;2023-05-10T07:57:38;14.60;78.20
78054;DHT22;67726;45.636;11.752;2023-05-10T08:00:05;14.70;78.60
78054;DHT22;67726;45.636;11.752;2023-05-10T08:02:30;14.70;79.10
78054;DHT22;67726;45.636;11.752;2023-05-10T08:04:56;14.70;78.60
78054;DHT22;67726;45.636;11.752;2023-05-10T08:07:24;14.70;78.80
78054;DHT22;67726;45.636;11.752;2023-05-10T08:09:49;14.70;79.00
78054;DHT22;67726;45.636;11.752;2023-05-10T08:12:15;14.70;79.50
78054;DHT22;67726;45.636;11.752;2023-05-10T08:14:41;14.80;79.50
78054;DHT22;67726;45.636;11.752;2023-05-10T08:17:06;14.80;79.90
78054;DHT22;67726;45.636;11.752;2023-05-10T08:19:32;14.80;79.90
78054;DHT22;67726;45.636;11.752;2023-05-10T08:21:58;14.80;80.00
78054;DHT22;67726;45.636;11.752;2023-05-10T08:24:23;14.80;79.70
78054;DHT22;67726;45.636;11.752;2023-05-10T08:26:49;14.80;79.60
78054;DHT22;67726;45.636;11.752;2023-05-10T08:29:15;14.80;79.80
78054;DHT22;67726;45.636;11.752;2023-05-10T08:31:40;14.80;79.80
78054;DHT22;67726;45.636;11.752;2023-05-10T08:34:06;14.60;79.60
78054;DHT22;67726;45.636;11.752;2023-05-10T08:36:32;14.70;80.00
78054;DHT22;67726;45.636;11.752;2023-05-10T08:38:58;14.60;79.50
78054;DHT22;67726;45.636;11.752;2023-05-10T08:41:24;14.60;79.80
78054;DHT22;67726;45.636;11.752;2023-05-10T08:43:52;14.60;80.00
78054;DHT22;67726;45.636;11.752;2023-05-10T08:46:20;14.60;79.80
78054;DHT22;67726;45.636;11.752;2023-05-10T08:48:47;14.60;79.90
78054;DHT22;67726;45.636;11.752;2023-05-10T08:51:19;14.70;80.40
78054;DHT22;67726;45.636;11.752;2023-05-10T08:53:46;14.60;80.40
78054;DHT22;67726;45.636;11.752;2023-05-10T08:56:12;14.60;80.20
78054;DHT22;67726;45.636;11.752;2023-05-10T08:58:38;14.60;80.70
78054;DHT22;67726;45.636;11.752;2023-05-10T09:01:05;14.70;80.70
78054;DHT22;67726;45.636;11.752;2023-05-10T09:03:31;14.70;81.00
78054;DHT22;67726;45.636;11.752;2023-05-10T09:05:58;14.80;81.00
78054;DHT22;67726;45.636;11.752;2023-05-10T09:08:25;14.80;80.30
78054;DHT22;67726;45.636;11.752;2023-05-10T09:10:51;14.80;80.80
78054;DHT22;67726;45.636;11.752;2023-05-10T09:13:19;14.90;80.50
78054;DHT22;67726;45.636;11.752;2023-05-10T09:15:45;14.90;80.40
78054;DHT22;67726;45.636;11.752;2023-05-10T09:18:11;14.90;80.80
78054;DHT22;67726;45.636;11.752;2023-05-10T09:20:37;15.00;80.70
78054;DHT22;67726;45.636;11.752;2023-05-10T09:23:03;15.10;80.90
78054;DHT22;67726;45.636;11.752;2023-05-10T09:25:29;15.10;80.10
78054;DHT22;67726;45.636;11.752;2023-05-10T09:27:55;15.00;80.20
78054;DHT22;67726;45.636;11.752;2023-05-10T09:30:28;15.00;80.10
78054;DHT22;67726;45.636;11.752;2023-05-10T09:32:55;15.10;80.40
78054;DHT22;67726;45.636;11.752;2023-05-10T09:35:23;15.00;80.30
78054;DHT22;67726;45.636;11.752;2023-05-10T09:37:51;15.00;80.50
78054;DHT22;67726;45.636;11.752;2023-05-10T09:40:20;15.00;80.30
78054;DHT22;67726;45.636;11.752;2023-05-10T09:42:53;15.00;80.90
78054;DHT22;67726;45.636;11.752;2023-05-10T09:45:20;15.00;81.20
78054;DHT22;67726;45.636;11.752;2023-05-10T09:47:46;15.00;80.90
78054;DHT22;67726;45.636;11.752;2023-05-10T09:50:11;15.10;80.90
78054;DHT22;67726;45.636;11.752;2023-05-10T09:55:21;15.10;81.10
78054;DHT22;67726;45.636;11.752;2023-05-10T09:57:48;15.00;80.80
78054;DHT22;67726;45.636;11.752;2023-05-10T10:00:18;15.00;81.30
78054;DHT22;67726;45.636;11.752;2023-05-10T10:02:53;14.90;80.40
78054;DHT22;67726;45.636;11.752;2023-05-10T10:05:19;14.80;81.20
78054;DHT22;67726;45.636;11.752;2023-05-10T10:07:45;14.80;80.80
78054;DHT22;67726;45.636;11.752;2023-05-10T10:10:11;14.80;81.20
78054;DHT22;67726;45.636;11.752;2023-05-10T10:12:39;14.80;81.40
78054;DHT22;67726;45.636;11.752;2023-05-10T10:15:05;14.80;80.80
78054;DHT22;67726;45.636;11.752;2023-05-10T10:17:32;14.70;81.30
78054;DHT22;67726;45.636;11.752;2023-05-10T10:20:02;14.70;81.00
78054;DHT22;67726;45.636;11.752;2023-05-10T10:22:28;14.70;81.30
78054;DHT22;67726;45.636;11.752;2023-05-10T10:24:55;14.80;81.40
78054;DHT22;67726;45.636;11.752;2023-05-10T10:27:28;14.80;81.50
78054;DHT22;67726;45.636;11.752;2023-05-10T10:35:15;14.90;81.50
78054;DHT22;67726;45.636;11.752;2023-05-10T10:37:46;14.90;81.60
78054;DHT22;67726;45.636;11.752;2023-05-10T10:40:30;15.00;81.70
78054;DHT22;67726;45.636;11.752;2023-05-10T10:42:57;15.10;82.10
78054;DHT22;67726;45.636;11.752;2023-05-10T10:45:24;15.10;81.90
78054;DHT22;67726;45.636;11.752;2023-05-10T10:48:21;15.10;81.70
78054;DHT22;67726;45.636;11.752;2023-05-10T10:50:47;15.10;81.80
78054;DHT22;67726;45.636;11.752;2023-05-10T10:53:13;15.20;82.10
78054;DHT22;67726;45.636;11.752;2023-05-10T10:55:48;15.30;82.00
78054;DHT22;67726;45.636;11.752;2023-05-10T10:58:33;15.30;82.20
78054;DHT22;67726;45.636;11.752;2023-05-10T11:01:19;15.40;82.40
78054;DHT22;67726;45.636;11.752;2023-05-10T11:06:33;15.60;81.10
78054;DHT22;67726;45.636;11.752;2023-05-10T11:09:06;15.60;81.10
78054;DHT22;67726;45.636;11.752;2023-05-10T11:11:32;15.60;81.30
78054;DHT22;67726;45.636;11.752;2023-05-10T11:14:04;15.50;80.50
78054;DHT22;67726;45.636;11.752;2023-05-10T11:16:41;15.60;80.20
78054;DHT22;67726;45.636;11.752;2023-05-10T11:19:13;15.60;80.70
78054;DHT22;67726;45.636;11.752;2023-05-10T11:24:30;15.50;80.40
78054;DHT22;67726;45.636;11.752;2023-05-10T11:26:56;15.50;80.40
78054;DHT22;67726;45.636;11.752;2023-05-10T11:29:22;15.50;80.60
78054;DHT22;67726;45.636;11.752;2023-05-10T11:31:49;15.40;80.60
78054;DHT22;67726;45.636;11.752;2023-05-10T11:34:26;15.40;80.30
78054;DHT22;67726;45.636;11.752;2023-05-10T11:36:54;15.40;81.00
78054;DHT22;67726;45.636;11.752;2023-05-10T11:39:20;15.40;82.00
78054;DHT22;67726;45.636;11.752;2023-05-10T11:41:50;15.40;81.50
78054;DHT22;67726;45.636;11.752;2023-05-10T11:44:16;15.40;82.00
78054;DHT22;67726;45.636;11.752;2023-05-10T11:46:41;15.40;82.10
78054;DHT22;67726;45.636;11.752;2023-05-10T11:49:07;15.30;82.20
78054;DHT22;67726;45.636;11.752;2023-05-10T11:51:34;15.30;82.40
78054;DHT22;67726;45.636;11.752;2023-05-10T11:54:11;15.40;82.00
78054;DHT22;67726;45.636;11.752;2023-05-10T11:56:38;15.40;82.30
78054;DHT22;67726;45.636;11.752;2023-05-10T11:59:04;15.30;82.50
78054;DHT22;67726;45.636;11.752;2023-05-10T12:01:30;15.40;81.70
78054;DHT22;67726;45.636;11.752;2023-05-10T12:03:57;15.30;81.50
78054;DHT22;67726;45.636;11.752;2023-05-10T12:06:31;15.30;81.80
78054;DHT22;67726;45.636;11.752;2023-05-10T12:08:57;15.20;82.30
78054;DHT22;67726;45.636;11.752;2023-05-10T12:11:28;15.20;82.30
78054;DHT22;67726;45.636;11.752;2023-05-10T12:13:54;15.10;82.20
78054;DHT22;67726;45.636;11.752;2023-05-10T12:16:22;15.00;82.20
78054;DHT22;67726;45.636;11.752;2023-05-10T12:18:48;15.00;82.70
78054;DHT22;67726;45.636;11.752;2023-05-10T12:21:14;15.10;82.80
78054;DHT22;67726;45.636;11.752;2023-05-10T12:23:41;15.10;82.90
78054;DHT22;67726;45.636;11.752;2023-05-10T12:26:09;15.10;83.00
78054;DHT22;67726;45.636;11.752;2023-05-10T12:28:36;15.10;83.20
78054;DHT22;67726;45.636;11.752;2023-05-10T12:31:02;15.10;83.30
78054;DHT22;67726;45.636;11.752;2023-05-10T12:33:42;15.10;83.20
78054;DHT22;67726;45.636;11.752;2023-05-10T12:36:12;15.20;83.20
78054;DHT22;67726;45.636;11.752;2023-05-10T12:38:40;15.00;82.90
78054;DHT22;67726;45.636;11.752;2023-05-10T12:41:18;15.10;83.20
78054;DHT22;67726;45.636;11.752;2023-05-10T12:43:44;15.10;83.50
78054;DHT22;67726;45.636;11.752;2023-05-10T12:46:15;15.00;82.90
78054;DHT22;67726;45.636;11.752;2023-05-10T12:48:42;15.00;83.30
78054;DHT22;67726;45.636;11.752;2023-05-10T12:51:09;14.90;83.40
78054;DHT22;67726;45.636;11.752;2023-05-10T12:53:35;15.00;83.90
78054;DHT22;67726;45.636;11.752;2023-05-10T12:56:01;14.90;83.50
78054;DHT22;67726;45.636;11.752;2023-05-10T12:58:27;15.00;83.80
78054;DHT22;67726;45.636;11.752;2023-05-10T13:00:53;14.90;83.50
78054;DHT22;67726;45.636;11.752;2023-05-10T13:03:19;15.00;83.60
78054;DHT22;67726;45.636;11.752;2023-05-10T13:05:44;14.90;83.60
78054;DHT22;67726;45.636;11.752;2023-05-10T13:08:10;14.90;84.00
78054;DHT22;67726;45.636;11.752;2023-05-10T13:10:36;14.90;83.60
78054;DHT22;67726;45.636;11.752;2023-05-10T13:13:02;14.90;83.60
78054;DHT22;67726;45.636;11.752;2023-05-10T13:15:28;14.90;83.80
78054;DHT22;67726;45.636;11.752;2023-05-10T13:17:54;14.90;84.30
78054;DHT22;67726;45.636;11.752;2023-05-10T13:20:20;15.00;84.30
78054;DHT22;67726;45.636;11.752;2023-05-10T13:22:46;14.90;84.10
78054;DHT22;67726;45.636;11.752;2023-05-10T13:25:12;14.90;84.10
78054;DHT22;67726;45.636;11.752;2023-05-10T13:27:39;15.00;84.10
78054;DHT22;67726;45.636;11.752;2023-05-10T13:30:05;15.00;84.60
78054;DHT22;67726;45.636;11.752;2023-05-10T13:32:31;15.00;84.20
78054;DHT22;67726;45.636;11.752;2023-05-10T13:34:57;15.10;84.00
78054;DHT22;67726;45.636;11.752;2023-05-10T13:37:22;15.10;83.80
78054;DHT22;67726;45.636;11.752;2023-05-10T13:39:48;15.10;84.00
78054;DHT22;67726;45.636;11.752;2023-05-10T13:42:14;15.00;83.80
78054;DHT22;67726;45.636;11.752;2023-05-10T13:44:39;15.00;83.70
78054;DHT22;67726;45.636;11.752;2023-05-10T13:47:05;15.00;83.60
78054;DHT22;67726;45.636;11.752;2023-05-10T13:49:31;15.00;83.80
78054;DHT22;67726;45.636;11.752;2023-05-10T13:51:57;15.00;84.30
78054;DHT22;67726;45.636;11.752;2023-05-10T13:54:23;15.10;84.20
78054;DHT22;67726;45.636;11.752;2023-05-10T13:56:49;15.10;84.40
78054;DHT22;67726;45.636;11.752;2023-05-10T13:59:15;15.10;84.50
78054;DHT22;67726;45.636;11.752;2023-05-10T14:01:41;15.10;84.40
78054;DHT22;67726;45.636;11.752;2023-05-10T14:04:08;15.20;84.30
78054;DHT22;67726;45.636;11.752;2023-05-10T14:06:36;15.10;84.40
78054;DHT22;67726;45.636;11.752;2023-05-10T14:09:02;15.20;84.30
78054;DHT22;67726;45.636;11.752;2023-05-10T14:11:28;15.10;84.20
78054;DHT22;67726;45.636;11.752;2023-05-10T14:13:54;15.10;84.80
78054;DHT22;67726;45.636;11.752;2023-05-10T14:16:20;15.10;84.60
78054;DHT22;67726;45.636;11.752;2023-05-10T14:18:46;15.20;84.50
78054;DHT22;67726;45.636;11.752;2023-05-10T14:21:12;15.20;84.40
78054;DHT22;67726;45.636;11.752;2023-05-10T14:23:37;15.10;84.50
78054;DHT22;67726;45.636;11.752;2023-05-10T14:26:03;15.10;84.40
78054;DHT22;67726;45.636;11.752;2023-05-10T14:28:29;15.10;84.60
78054;DHT22;67726;45.636;11.752;2023-05-10T14:30:54;15.00;84.70
78054;DHT22;67726;45.636;11.752;2023-05-10T14:33:20;15.10;84.30
78054;DHT22;67726;45.636;11.752;2023-05-10T14:35:47;15.00;84.60
78054;DHT22;67726;45.636;11.752;2023-05-10T14:38:13;15.10;84.50
78054;DHT22;67726;45.636;11.752;2023-05-10T14:40:39;15.00;84.60
78054;DHT22;67726;45.636;11.752;2023-05-10T14:43:04;15.00;84.70
78054;DHT22;67726;45.636;11.752;2023-05-10T14:45:30;14.90;84.40
78054;DHT22;67726;45.636;11.752;2023-05-10T14:47:57;14.90;84.70
78054;DHT22;67726;45.636;11.752;2023-05-10T14:50:23;14.90;85.00
78054;DHT22;67726;45.636;11.752;2023-05-10T14:52:49;15.00;84.90
78054;DHT22;67726;45.636;11.752;2023-05-10T14:55:15;14.80;85.10
78054;DHT22;67726;45.636;11.752;2023-05-10T14:57:41;15.00;85.30
78054;DHT22;67726;45.636;11.752;2023-05-10T15:00:07;14.90;84.80
78054;DHT22;67726;45.636;11.752;2023-05-10T15:02:33;15.00;84.70
78054;DHT22;67726;45.636;11.752;2023-05-10T15:04:59;14.90;84.80
78054;DHT22;67726;45.636;11.752;2023-05-10T15:07:24;14.90;85.10
78054;DHT22;67726;45.636;11.752;2023-05-10T15:09:50;14.90;84.90
78054;DHT22;67726;45.636;11.752;2023-05-10T15:12:17;14.90;85.20
78054;DHT22;67726;45.636;11.752;2023-05-10T15:14:43;14.90;84.70
78054;DHT22;67726;45.636;11.752;2023-05-10T15:17:09;14.80;84.50
78054;DHT22;67726;45.636;11.752;2023-05-10T15:19:35;14.80;84.40
78054;DHT22;67726;45.636;11.752;2023-05-10T15:22:01;14.80;84.40
78054;DHT22;67726;45.636;11.752;2023-05-10T15:24:28;14.80;84.70
78054;DHT22;67726;45.636;11.752;2023-05-10T15:26:53;14.80;84.40
78054;DHT22;67726;45.636;11.752;2023-05-10T15:29:19;14.70;85.10
78054;DHT22;67726;45.636;11.752;2023-05-10T15:31:49;14.70;84.80
78054;DHT22;67726;45.636;11.752;2023-05-10T15:34:16;14.80;84.90
78054;DHT22;67726;45.636;11.752;2023-05-10T15:36:42;14.80;85.30
78054;DHT22;67726;45.636;11.752;2023-05-10T15:39:08;14.80;85.00
78054;DHT22;67726;45.636;11.752;2023-05-10T15:41:35;14.90;84.90
78054;DHT22;67726;45.636;11.752;2023-05-10T15:44:01;14.90;85.10
78054;DHT22;67726;45.636;11.752;2023-05-10T15:46:28;15.00;85.60